createdAt,value
2022-10-05T00:00:54.876Z,6.10
2022-10-05T00:03:24.637Z,6.03
2022-10-05T00:05:52.290Z,5.60
2022-10-05T00:08:22.488Z,6.53
2022-10-05T00:10:51.256Z,5.78
2022-10-05T00:13:25.051Z,6.50
2022-10-05T00:16:05.470Z,6.30
2022-10-05T00:18:33.415Z,6.55
2022-10-05T00:21:01.866Z,6.32
2022-10-05T00:23:31.678Z,6.97
2022-10-05T00:26:16.438Z,5.82
2022-10-05T00:28:44.210Z,5.78
2022-10-05T00:31:19.054Z,5.38
2022-10-05T00:33:47.861Z,6.53
2022-10-05T00:36:15.456Z,5.78
2022-10-05T00:38:44.065Z,5.18
2022-10-05T00:41:31.822Z,5.82
2022-10-05T00:44:20.551Z,5.30
2022-10-05T00:47:09.344Z,6.38
2022-10-05T00:49:44.714Z,5.65
2022-10-05T00:52:24.105Z,4.97
2022-10-05T00:55:11.220Z,4.10
2022-10-05T00:58:30.193Z,4.70
2022-10-05T01:01:12.164Z,5.43
2022-10-05T01:03:49.160Z,4.63
2022-10-05T01:06:40.939Z,4.97
2022-10-05T01:09:45.259Z,5.15
2022-10-05T01:12:24.890Z,4.55
2022-10-05T01:15:15.667Z,4.82
2022-10-05T01:17:53.183Z,5.07
2022-10-05T01:20:46.311Z,4.50
2022-10-05T01:23:35.224Z,4.40
2022-10-05T01:26:24.969Z,4.65
2022-10-05T01:29:11.861Z,4.20
2022-10-05T01:32:07.225Z,4.38
2022-10-05T01:35:18.163Z,4.07
2022-10-05T01:38:23.920Z,4.50
2022-10-05T01:41:16.021Z,4.93
2022-10-05T01:44:09.986Z,4.30
2022-10-05T01:46:37.605Z,4.00
2022-10-05T01:49:41.089Z,4.93
2022-10-05T01:52:32.019Z,5.53
2022-10-05T01:55:05.495Z,4.65
2022-10-05T01:58:06.516Z,5.32
2022-10-05T02:00:59.670Z,4.80
2022-10-05T02:03:37.026Z,4.10
2022-10-05T02:06:17.753Z,4.57
2022-10-05T02:08:54.025Z,4.10
2022-10-05T02:11:21.693Z,3.95
2022-10-05T02:14:31.843Z,4.55
2022-10-05T02:17:05.587Z,4.43
2022-10-05T02:19:39.492Z,3.70
2022-10-05T02:22:32.456Z,4.30
2022-10-05T02:25:09.389Z,3.78
2022-10-05T02:27:45.689Z,4.00
2022-10-05T02:30:16.770Z,4.00
2022-10-05T02:32:58.129Z,4.15
2022-10-05T02:35:26.767Z,4.13
2022-10-05T02:38:07.919Z,3.70
2022-10-05T02:40:57.148Z,3.80
2022-10-05T02:43:39.206Z,3.85
2022-10-05T02:46:14.818Z,3.67
2022-10-05T02:49:07.687Z,3.50
2022-10-05T02:52:03.436Z,3.13
2022-10-05T02:55:02.280Z,3.72
2022-10-05T02:57:47.235Z,3.53
2022-10-05T03:00:18.301Z,3.20
2022-10-05T03:03:11.094Z,3.30
2022-10-05T03:05:53.161Z,3.20
2022-10-05T03:08:35.951Z,3.17
2022-10-05T03:11:23.248Z,3.03
2022-10-05T03:14:21.945Z,3.25
2022-10-05T03:16:49.757Z,3.55
2022-10-05T03:19:54.302Z,2.78
2022-10-05T03:22:40.933Z,2.97
2022-10-05T03:25:18.393Z,3.00
2022-10-05T03:28:16.430Z,2.70
2022-10-05T03:31:10.179Z,2.88
2022-10-05T03:33:48.810Z,3.10
2022-10-05T03:37:05.989Z,2.60
2022-10-05T03:39:49.980Z,2.28
2022-10-05T03:42:29.831Z,2.50
2022-10-05T03:45:08.984Z,2.20
2022-10-05T03:48:03.916Z,3.10
2022-10-05T03:50:40.890Z,2.53
2022-10-05T03:53:30.013Z,2.55
2022-10-05T03:56:04.191Z,2.05
2022-10-05T03:58:58.911Z,2.63
2022-10-05T04:01:39.075Z,2.53
2022-10-05T04:04:13.773Z,2.55
2022-10-05T04:06:49.324Z,2.10
2022-10-05T04:09:24.045Z,2.72
2022-10-05T04:12:11.908Z,2.20
2022-10-05T04:14:47.165Z,1.85
2022-10-05T04:17:18.527Z,2.30
2022-10-05T04:20:31.049Z,2.10
2022-10-05T04:23:10.748Z,2.17
2022-10-05T04:26:04.449Z,2.10
2022-10-05T04:28:40.999Z,2.05
2022-10-05T04:31:16.262Z,2.17
2022-10-05T04:33:53.532Z,2.22
2022-10-05T04:36:45.124Z,2.00
2022-10-05T04:39:23.463Z,2.55
2022-10-05T04:42:06.311Z,2.58
2022-10-05T04:44:43.345Z,2.08
2022-10-05T04:47:11.671Z,2.30
2022-10-05T04:49:57.279Z,2.42
2022-10-05T04:52:43.888Z,2.00
2022-10-05T04:55:25.335Z,2.03
2022-10-05T04:58:11.870Z,1.92
2022-10-05T05:00:54.616Z,2.00
2022-10-05T05:03:40.562Z,1.75
2022-10-05T05:06:27.933Z,2.00
2022-10-05T05:09:20.308Z,1.60
2022-10-05T05:12:19.092Z,2.03
2022-10-05T05:15:15.023Z,1.88
2022-10-05T05:18:15.339Z,2.17
2022-10-05T05:20:53.819Z,1.90
2022-10-05T05:23:30.443Z,2.03
2022-10-05T05:26:27.406Z,1.80
2022-10-05T05:29:02.646Z,2.08
2022-10-05T05:31:57.732Z,2.00
2022-10-05T05:34:41.372Z,2.08
2022-10-05T05:37:32.507Z,2.45
2022-10-05T05:40:13.349Z,2.08
2022-10-05T05:42:58.936Z,1.90
2022-10-05T05:45:42.485Z,1.95
2022-10-05T05:48:42.154Z,1.88
2022-10-05T05:51:21.412Z,2.08
2022-10-05T05:53:54.085Z,2.22
2022-10-05T05:56:31.102Z,1.55
2022-10-05T05:59:17.810Z,2.33
2022-10-05T06:01:48.729Z,2.22
2022-10-05T06:04:25.138Z,2.45
2022-10-05T06:06:57.242Z,1.65
2022-10-05T06:09:29.046Z,2.00
2022-10-05T06:12:27.361Z,2.40
2022-10-05T06:15:04.706Z,1.90
2022-10-05T06:17:47.623Z,2.40
2022-10-05T06:20:32.705Z,2.10
2022-10-05T06:23:06.383Z,2.45
2022-10-05T06:25:51.209Z,2.28
2022-10-05T06:28:19.792Z,2.20
2022-10-05T06:31:06.031Z,2.45
2022-10-05T06:33:53.883Z,2.70
2022-10-05T06:36:49.146Z,2.10
2022-10-05T06:40:00.789Z,1.88
2022-10-05T06:42:34.489Z,2.25
2022-10-05T06:45:38.367Z,1.85
2022-10-05T06:48:49.362Z,2.15
2022-10-05T06:51:51.696Z,1.80
2022-10-05T06:54:48.846Z,2.20
2022-10-05T06:57:36.791Z,1.67
2022-10-05T07:00:20.958Z,1.58
2022-10-05T07:02:57.819Z,2.08
2022-10-05T07:05:53.813Z,2.13
2022-10-05T07:08:54.388Z,1.70
2022-10-05T07:11:27.384Z,2.00
2022-10-05T07:14:09.266Z,1.60
2022-10-05T07:17:05.356Z,2.17
2022-10-05T07:20:17.833Z,1.50
2022-10-05T07:22:57.982Z,1.27
2022-10-05T07:25:33.727Z,1.00
2022-10-05T07:28:18.783Z,1.00
2022-10-05T07:31:13.072Z,0.70
2022-10-05T07:33:51.704Z,0.50
2022-10-05T07:36:54.656Z,0.47
2022-10-05T07:39:58.636Z,0.60
2022-10-05T07:42:32.119Z,0.50
2022-10-05T07:45:21.517Z,0.50
2022-10-05T07:47:59.298Z,0.70
2022-10-05T07:50:37.455Z,0.57
2022-10-05T07:53:35.245Z,0.40
2022-10-05T07:56:14.998Z,0.93
2022-10-05T07:58:46.798Z,0.70
2022-10-05T08:01:22.740Z,0.30
2022-10-05T08:04:21.053Z,0.60
2022-10-05T08:06:59.707Z,0.60
2022-10-05T08:09:48.448Z,0.35
2022-10-05T08:12:40.312Z,0.30
2022-10-05T08:15:15.513Z,0.40
2022-10-05T08:17:46.010Z,0.68
2022-10-05T08:20:44.803Z,0.50
2022-10-05T08:23:46.736Z,0.40
2022-10-05T08:26:42.082Z,0.47
2022-10-05T08:29:37.514Z,0.60
2022-10-05T08:32:16.391Z,0.90
2022-10-05T08:34:52.696Z,0.80
2022-10-05T08:37:27.647Z,0.40
2022-10-05T08:40:24.588Z,0.90
2022-10-05T08:43:35.021Z,1.10
2022-10-05T08:46:05.992Z,1.40
2022-10-05T08:48:56.338Z,1.00
2022-10-05T08:51:49.815Z,0.30
2022-10-05T08:54:52.697Z,0.40
2022-10-05T08:57:46.674Z,0.22
2022-10-05T09:00:39.371Z,0.60
2022-10-05T09:03:15.401Z,1.00
2022-10-05T09:06:15.402Z,0.68
2022-10-05T09:08:51.885Z,0.70
2022-10-05T09:11:46.163Z,0.55
2022-10-05T09:14:14.402Z,0.52
2022-10-05T09:17:05.173Z,0.85
2022-10-05T09:19:56.223Z,1.25
2022-10-05T09:22:38.975Z,1.30
2022-10-05T09:25:24.962Z,1.25
2022-10-05T09:27:57.345Z,1.20
2022-10-05T09:30:28.469Z,1.10
2022-10-05T09:33:26.069Z,1.30
2022-10-05T09:36:25.114Z,1.42
2022-10-05T09:39:28.285Z,1.30
2022-10-05T09:42:46.543Z,1.35
2022-10-05T09:45:31.559Z,1.40
2022-10-05T09:48:25.909Z,1.13
2022-10-05T09:51:22.515Z,1.90
2022-10-05T09:54:20.527Z,1.25
2022-10-05T09:57:32.846Z,2.30
2022-10-05T10:00:09.749Z,2.17
2022-10-05T10:02:55.904Z,2.88
2022-10-05T10:05:51.730Z,4.13
2022-10-05T10:08:38.871Z,2.70
2022-10-05T10:11:38.832Z,2.53
2022-10-05T10:14:25.247Z,2.90
2022-10-05T10:17:32.059Z,2.20
2022-10-05T10:20:02.751Z,2.75
2022-10-05T10:23:14.904Z,2.25
2022-10-05T10:25:45.624Z,2.63
2022-10-05T10:28:34.899Z,3.42
2022-10-05T10:31:18.052Z,1.70
2022-10-05T10:33:52.067Z,3.38
2022-10-05T10:36:57.025Z,2.38
2022-10-05T10:39:40.040Z,3.45
2022-10-05T10:42:31.995Z,2.20
2022-10-05T10:45:19.577Z,2.10
2022-10-05T10:50:49.379Z,2.30
2022-10-05T10:53:19.967Z,2.38
2022-10-05T10:56:12.375Z,2.25
2022-10-05T10:58:51.923Z,3.88
2022-10-05T11:01:25.478Z,3.45
2022-10-05T11:04:13.619Z,2.28
2022-10-05T11:06:59.943Z,1.90
2022-10-05T11:09:58.583Z,2.00
2022-10-05T11:12:34.559Z,1.88
2022-10-05T11:15:14.592Z,1.33
2022-10-05T11:18:23.697Z,1.23
2022-10-05T11:21:22.006Z,1.02
2022-10-05T11:23:55.059Z,1.60
2022-10-05T11:26:37.665Z,1.20
2022-10-05T11:29:30.046Z,2.00
2022-10-05T11:32:26.624Z,1.80
2022-10-05T11:35:24.744Z,1.23
2022-10-05T11:38:14.168Z,1.52
2022-10-05T11:41:02.219Z,2.08
2022-10-05T11:44:08.914Z,2.13
2022-10-05T11:46:49.926Z,1.98
2022-10-05T11:49:18.286Z,2.50
2022-10-05T11:55:10.519Z,2.05
2022-10-05T11:57:49.570Z,1.95
2022-10-05T12:00:28.229Z,2.55
2022-10-05T12:03:09.631Z,2.15
2022-10-05T12:05:51.695Z,1.85
2022-10-05T12:08:34.360Z,1.80
2022-10-05T12:11:32.693Z,1.90
2022-10-05T12:14:21.012Z,1.73
2022-10-05T12:16:59.701Z,2.22
2022-10-05T12:19:36.687Z,1.80
2022-10-05T12:22:22.344Z,1.42
2022-10-05T12:25:15.221Z,2.25
2022-10-05T12:27:46.365Z,1.95
2022-10-05T12:30:16.897Z,2.55
2022-10-05T12:33:10.564Z,2.50
2022-10-05T12:35:51.056Z,3.75
2022-10-05T12:38:34.796Z,3.80
2022-10-05T12:41:32.321Z,3.40
2022-10-05T12:44:18.658Z,4.68
2022-10-05T12:47:08.535Z,4.65
2022-10-05T12:49:39.047Z,4.63
2022-10-05T12:52:28.177Z,2.05
2022-10-05T12:55:06.768Z,4.03
2022-10-05T12:57:47.617Z,3.80
2022-10-05T13:00:22.990Z,4.63
2022-10-05T13:03:09.896Z,4.28
2022-10-05T13:05:46.468Z,3.53
2022-10-05T13:08:27.926Z,3.78
2022-10-05T13:11:12.736Z,3.60
2022-10-05T13:14:25.797Z,3.22
2022-10-05T13:16:55.359Z,2.38
2022-10-05T13:19:44.604Z,2.60
2022-10-05T13:22:30.331Z,2.10
2022-10-05T13:25:09.253Z,2.70
2022-10-05T13:27:43.756Z,2.65
2022-10-05T13:30:12.035Z,1.70
2022-10-05T13:32:45.739Z,1.30
2022-10-05T13:35:22.237Z,1.33
2022-10-05T13:38:22.135Z,1.50
2022-10-05T13:40:53.574Z,1.00
2022-10-05T13:43:21.685Z,1.02
2022-10-05T13:45:56.793Z,0.82
2022-10-05T13:48:58.028Z,0.60
2022-10-05T13:51:38.940Z,0.75
2022-10-05T13:54:31.641Z,0.95
2022-10-05T13:57:30.002Z,1.25
2022-10-05T14:00:02.489Z,1.10
2022-10-05T14:02:44.650Z,1.45
2022-10-05T14:05:23.965Z,1.20
2022-10-05T14:07:59.646Z,1.00
2022-10-05T14:10:41.312Z,1.00
2022-10-05T14:13:43.697Z,1.10
2022-10-05T14:16:16.921Z,1.17
2022-10-05T14:18:57.872Z,1.00
2022-10-05T14:21:29.179Z,0.98
2022-10-05T14:24:42.415Z,0.70
2022-10-05T14:27:28.165Z,0.70
2022-10-05T14:30:03.125Z,0.80
2022-10-05T14:32:43.247Z,1.20
2022-10-05T14:35:13.042Z,0.75
2022-10-05T14:38:04.666Z,0.77
2022-10-05T14:40:37.931Z,0.80
2022-10-05T14:43:14.788Z,1.02
2022-10-05T14:46:01.390Z,1.00
2022-10-05T14:48:40.739Z,0.80
2022-10-05T14:51:24.488Z,0.90
2022-10-05T14:54:01.426Z,0.80
2022-10-05T14:57:02.643Z,0.80
2022-10-05T15:00:01.187Z,0.88
2022-10-05T15:02:48.788Z,1.25
2022-10-05T15:05:33.653Z,0.90
2022-10-05T15:08:38.090Z,0.80
2022-10-05T15:11:09.253Z,1.10
2022-10-05T15:13:41.780Z,1.10
2022-10-05T15:16:22.933Z,1.55
2022-10-05T15:19:05.735Z,1.58
2022-10-05T15:21:33.770Z,1.05
2022-10-05T15:26:44.995Z,1.73
2022-10-05T15:29:43.042Z,1.80
2022-10-05T15:32:34.478Z,1.65
2022-10-05T15:35:36.116Z,1.20
2022-10-05T15:38:04.054Z,1.40
2022-10-05T15:43:13.570Z,0.95
2022-10-05T15:45:57.351Z,0.60
2022-10-05T15:48:48.645Z,1.05
2022-10-05T15:51:16.653Z,0.82
2022-10-05T15:56:38.439Z,1.17
2022-10-05T15:59:30.590Z,1.20
2022-10-05T16:02:04.437Z,1.13
2022-10-05T16:05:01.139Z,0.98
2022-10-05T16:08:08.217Z,0.98
2022-10-05T16:10:43.982Z,0.98
2022-10-05T16:13:32.433Z,1.00
2022-10-05T16:16:26.500Z,1.00
2022-10-05T16:18:55.052Z,0.90
2022-10-05T16:21:46.028Z,0.80
2022-10-05T16:24:58.860Z,1.05
2022-10-05T16:28:03.007Z,0.77
2022-10-05T16:30:44.959Z,1.25
2022-10-05T16:33:29.734Z,1.27
2022-10-05T16:36:06.430Z,0.77
2022-10-05T16:39:02.099Z,0.88
2022-10-05T16:41:34.887Z,0.95
2022-10-05T16:44:11.389Z,1.10
2022-10-05T16:46:47.644Z,0.90
2022-10-05T16:49:18.320Z,1.00
2022-10-05T16:52:01.316Z,0.88
2022-10-05T16:54:36.144Z,0.80
2022-10-05T16:57:22.807Z,0.80
2022-10-05T17:00:20.708Z,0.90
2022-10-05T17:03:34.259Z,1.73
2022-10-05T17:06:27.318Z,1.58
2022-10-05T17:08:55.455Z,1.95
2022-10-05T17:11:56.136Z,1.75
2022-10-05T17:15:00.985Z,1.27
2022-10-05T17:17:28.942Z,1.23
2022-10-05T17:19:59.381Z,1.33
2022-10-05T17:22:39.854Z,1.10
2022-10-05T17:25:24.323Z,1.10
2022-10-05T17:28:24.610Z,1.70
2022-10-05T17:30:54.050Z,1.00
2022-10-05T17:33:31.379Z,1.00
2022-10-05T17:36:04.850Z,1.00
2022-10-05T17:38:35.731Z,1.08
2022-10-05T17:41:05.488Z,0.98
2022-10-05T17:43:34.040Z,1.40
2022-10-05T17:46:07.182Z,1.20
2022-10-05T17:48:49.994Z,1.33
2022-10-05T17:51:48.391Z,1.23
2022-10-05T17:54:40.685Z,2.25
2022-10-05T17:57:08.635Z,1.50
2022-10-05T17:59:39.259Z,1.30
2022-10-05T18:02:22.415Z,1.65
2022-10-05T18:05:25.715Z,1.23
2022-10-05T18:08:12.840Z,1.30
2022-10-05T18:11:05.469Z,1.05
2022-10-05T18:13:45.543Z,0.93
2022-10-05T18:16:33.525Z,0.95
2022-10-05T18:19:03.027Z,1.10
2022-10-05T18:21:37.594Z,1.20
2022-10-05T18:24:38.182Z,1.10
2022-10-05T18:27:34.324Z,1.08
2022-10-05T18:30:14.394Z,1.75
2022-10-05T18:32:59.425Z,1.02
2022-10-05T18:35:33.182Z,0.75
2022-10-05T18:38:25.430Z,1.38
2022-10-05T18:40:53.603Z,1.25
2022-10-05T18:43:29.991Z,1.15
2022-10-05T18:46:08.172Z,0.90
2022-10-05T18:48:54.680Z,0.98
2022-10-05T18:51:38.388Z,1.08
2022-10-05T18:54:33.830Z,1.02
2022-10-05T18:57:39.989Z,1.15
2022-10-05T19:00:16.360Z,1.23
2022-10-05T19:03:11.819Z,1.92
2022-10-05T19:05:54.908Z,1.70
2022-10-05T19:08:50.804Z,1.00
2022-10-05T19:11:24.293Z,0.90
2022-10-05T19:14:28.209Z,1.52
2022-10-05T19:17:04.810Z,1.35
2022-10-05T19:19:59.886Z,1.45
2022-10-05T19:22:48.246Z,1.00
2022-10-05T19:25:24.725Z,1.27
2022-10-05T19:28:08.497Z,1.40
2022-10-05T19:30:53.402Z,1.42
2022-10-05T19:33:31.521Z,1.50
2022-10-05T19:36:17.530Z,1.95
2022-10-05T19:38:58.222Z,1.92
2022-10-05T19:41:27.471Z,1.58
2022-10-05T19:44:01.067Z,1.90
2022-10-05T19:46:40.797Z,1.80
2022-10-05T19:49:10.603Z,1.63
2022-10-05T19:51:49.353Z,1.58
2022-10-05T19:54:25.984Z,1.05
2022-10-05T19:56:54.919Z,1.50
2022-10-05T19:59:28.043Z,1.40
2022-10-05T20:01:57.074Z,1.48
2022-10-05T20:04:40.970Z,1.88
2022-10-05T20:07:15.202Z,1.30
2022-10-05T20:10:00.335Z,1.33
2022-10-05T20:12:55.917Z,1.10
2022-10-05T20:18:15.634Z,1.00
2022-10-05T20:20:47.172Z,1.40
2022-10-05T20:23:25.228Z,1.48
2022-10-05T20:26:11.932Z,0.95
2022-10-05T20:28:40.016Z,0.90
2022-10-05T20:31:08.353Z,1.30
2022-10-05T20:33:36.405Z,2.13
2022-10-05T20:36:04.624Z,1.70
2022-10-05T20:38:40.590Z,1.50
2022-10-05T20:41:09.472Z,1.30
2022-10-05T20:46:07.676Z,1.35
2022-10-05T20:48:36.144Z,1.95
2022-10-05T20:51:03.845Z,1.23
2022-10-05T20:53:31.768Z,1.33
2022-10-05T20:56:02.552Z,1.85
2022-10-05T20:58:30.745Z,1.23
2022-10-05T21:01:19.684Z,1.58
2022-10-05T21:03:48.004Z,1.50
2022-10-05T21:06:16.066Z,1.65
2022-10-05T21:08:44.357Z,1.85
2022-10-05T21:13:44.732Z,1.48
2022-10-05T21:16:14.006Z,2.10
2022-10-05T21:18:42.296Z,2.90
2022-10-05T21:21:10.520Z,1.80
2022-10-05T21:23:38.644Z,1.92
2022-10-05T21:26:08.040Z,1.92
2022-10-05T21:28:35.950Z,1.55
2022-10-05T21:31:03.903Z,1.35
2022-10-05T21:33:32.079Z,1.88
2022-10-05T21:38:28.517Z,1.60
2022-10-05T21:40:56.621Z,1.13
2022-10-05T21:43:25.191Z,1.58
2022-10-05T21:45:55.056Z,2.03
2022-10-05T21:48:23.417Z,1.30
2022-10-05T21:50:51.376Z,1.95
2022-10-05T21:53:21.379Z,1.88
2022-10-05T21:55:50.851Z,1.33
2022-10-05T21:58:20.721Z,1.50
2022-10-05T22:00:49.069Z,1.92
2022-10-05T22:03:17.004Z,1.30
2022-10-05T22:05:44.514Z,2.47
2022-10-05T22:08:23.956Z,1.40
2022-10-05T22:10:54.760Z,1.50
2022-10-05T22:13:26.915Z,1.25
2022-10-05T22:15:56.345Z,1.33
2022-10-05T22:18:26.233Z,1.33
2022-10-05T22:20:54.600Z,1.90
2022-10-05T22:23:22.894Z,1.45
2022-10-05T22:25:51.243Z,1.40
2022-10-05T22:28:19.249Z,1.80
2022-10-05T22:33:14.529Z,1.70
2022-10-05T22:35:42.078Z,1.52
2022-10-05T22:38:09.875Z,1.92
2022-10-05T22:40:38.013Z,1.52
2022-10-05T22:45:33.619Z,1.42
2022-10-05T22:50:28.932Z,1.90
2022-10-05T22:52:56.943Z,2.20
2022-10-05T22:55:25.063Z,1.50
2022-10-05T22:57:53.040Z,1.67
2022-10-05T23:00:27.554Z,1.42
2022-10-05T23:02:55.686Z,1.45
2022-10-05T23:05:23.603Z,2.45
2022-10-05T23:07:51.415Z,1.58
2022-10-05T23:10:19.329Z,1.63
2022-10-05T23:15:28.681Z,1.55
2022-10-05T23:20:26.037Z,1.65
2022-10-05T23:22:53.859Z,1.58
2022-10-05T23:25:22.269Z,1.50
2022-10-05T23:27:50.189Z,1.45
2022-10-05T23:30:18.071Z,1.55
2022-10-05T23:32:46.169Z,1.40
2022-10-05T23:37:43.330Z,1.40
2022-10-05T23:40:13.489Z,1.50
2022-10-05T23:42:42.185Z,1.92
2022-10-05T23:45:11.484Z,1.55
2022-10-05T23:47:40.368Z,1.60
2022-10-05T23:50:09.690Z,1.67
2022-10-05T23:52:37.772Z,1.50
2022-10-05T23:55:06.337Z,1.77
2022-10-05T23:57:34.594Z,1.17
